createdAt,value
2023-03-22T00:00:05.953Z,100631.71
2023-03-22T00:05:31.549Z,100631.70
2023-03-22T00:10:38.507Z,100625.13
2023-03-22T00:15:49.380Z,100616.37
2023-03-22T00:20:56.542Z,100616.66
2023-03-22T00:26:01.987Z,100607.34
2023-03-22T00:31:09.109Z,100600.92
2023-03-22T00:36:14.884Z,100598.33
2023-03-22T00:41:23.059Z,100594.20
2023-03-22T00:46:28.524Z,100598.77
2023-03-22T00:51:34.153Z,100601.36
2023-03-22T00:56:40.221Z,100598.60
2023-03-22T01:01:51.516Z,100598.34
2023-03-22T01:07:03.585Z,100588.35
2023-03-22T01:12:09.325Z,100581.09
2023-03-22T01:17:15.192Z,100582.49
2023-03-22T01:22:21.186Z,100578.70
2023-03-22T01:27:26.896Z,100576.55
2023-03-22T01:32:32.475Z,100575.10
2023-03-22T01:37:38.089Z,100576.14
2023-03-22T01:42:43.980Z,100571.65
2023-03-22T01:47:59.344Z,100568.70
2023-03-22T01:53:06.864Z,100561.48
2023-03-22T01:58:18.000Z,100554.52
2023-03-22T02:03:36.858Z,100552.77
2023-03-22T02:08:42.913Z,100547.98
2023-03-22T02:14:12.840Z,100549.41
2023-03-22T02:20:18.442Z,100542.87
2023-03-22T02:25:48.663Z,100538.98
2023-03-22T02:31:31.797Z,100534.67
2023-03-22T02:37:06.458Z,100533.49
2023-03-22T02:42:27.607Z,100539.50
2023-03-22T02:47:41.648Z,100537.57
2023-03-22T02:52:52.724Z,100534.38
2023-03-22T02:58:03.146Z,100524.62
2023-03-22T03:03:11.691Z,100519.90
2023-03-22T03:08:20.423Z,100519.55
2023-03-22T03:13:26.486Z,100510.23
2023-03-22T03:18:44.802Z,100510.09
2023-03-22T03:23:59.349Z,100519.23
2023-03-22T03:29:11.851Z,100515.80
2023-03-22T03:34:23.979Z,100509.91
2023-03-22T03:39:33.644Z,100507.52
2023-03-22T03:44:39.953Z,100502.61
2023-03-22T03:49:46.105Z,100504.86
2023-03-22T03:54:51.553Z,100506.19
2023-03-22T04:00:00.220Z,100509.60
2023-03-22T04:05:39.079Z,100504.48
2023-03-22T04:10:48.762Z,100503.13
2023-03-22T04:15:58.179Z,100502.73
2023-03-22T04:21:05.473Z,100506.19
2023-03-22T04:26:18.812Z,100500.94
2023-03-22T04:31:45.306Z,100498.35
2023-03-22T04:37:02.690Z,100500.23
2023-03-22T04:42:27.217Z,100496.53
2023-03-22T04:47:50.440Z,100500.88
2023-03-22T04:52:58.451Z,100500.71
2023-03-22T04:58:04.494Z,100509.44
2023-03-22T05:03:10.405Z,100507.61
2023-03-22T05:08:19.956Z,100508.14
2023-03-22T05:13:28.073Z,100513.79
2023-03-22T05:18:34.509Z,100512.89
2023-03-22T05:23:40.578Z,100510.00
2023-03-22T05:28:46.501Z,100512.23
2023-03-22T05:33:58.193Z,100514.88
2023-03-22T05:39:06.135Z,100510.17
2023-03-22T05:44:12.175Z,100507.39
2023-03-22T05:49:22.098Z,100511.19
2023-03-22T05:54:28.501Z,100516.79
2023-03-22T05:59:34.219Z,100522.36
2023-03-22T06:04:41.613Z,100523.27
2023-03-22T06:09:51.935Z,100524.81
2023-03-22T06:15:01.338Z,100524.27
2023-03-22T06:20:12.211Z,100520.10
2023-03-22T06:25:20.734Z,100515.84
2023-03-22T06:30:27.389Z,100517.95
2023-03-22T06:36:00.776Z,100518.95
2023-03-22T06:41:11.784Z,100511.40
2023-03-22T06:46:17.821Z,100502.20
2023-03-22T06:51:31.866Z,100495.56
2023-03-22T06:56:37.420Z,100492.11
2023-03-22T07:01:42.998Z,100484.64
2023-03-22T07:06:49.278Z,100477.33
2023-03-22T07:11:54.967Z,100474.39
2023-03-22T07:17:01.511Z,100468.16
2023-03-22T07:22:08.042Z,100464.45
2023-03-22T07:27:14.661Z,100452.91
2023-03-22T07:32:20.779Z,100453.28
2023-03-22T07:37:40.658Z,100447.74
2023-03-22T07:42:55.933Z,100441.38
2023-03-22T07:48:16.133Z,100438.38
2023-03-22T07:53:40.541Z,100434.91
2023-03-22T07:58:46.163Z,100434.08
2023-03-22T08:03:51.977Z,100435.53
2023-03-22T08:09:11.571Z,100433.62
2023-03-22T08:14:22.201Z,100429.09
2023-03-22T08:19:33.809Z,100430.65
2023-03-22T08:24:39.638Z,100423.25
2023-03-22T08:29:48.822Z,100416.64
2023-03-22T08:34:55.324Z,100414.95
2023-03-22T08:40:00.944Z,100415.54
2023-03-22T08:45:18.302Z,100419.40
2023-03-22T08:50:30.390Z,100410.11
2023-03-22T08:55:45.735Z,100409.54
2023-03-22T09:00:52.190Z,100403.99
2023-03-22T09:06:10.726Z,100406.14
2023-03-22T09:11:18.245Z,100401.95
2023-03-22T09:16:25.199Z,100404.52
2023-03-22T09:21:31.006Z,100401.64
2023-03-22T09:26:46.800Z,100401.80
2023-03-22T09:31:54.375Z,100388.30
2023-03-22T09:37:04.257Z,100386.39
2023-03-22T09:42:31.451Z,100379.46
2023-03-22T09:47:45.285Z,100375.67
2023-03-22T09:52:52.898Z,100372.48
2023-03-22T09:58:09.452Z,100365.98
2023-03-22T10:03:29.463Z,100354.40
2023-03-22T10:08:56.574Z,100346.19
2023-03-22T10:14:15.340Z,100352.70
2023-03-22T10:19:27.121Z,100353.25
2023-03-22T10:24:35.700Z,100357.33
2023-03-22T10:29:44.486Z,100357.30
2023-03-22T10:34:49.894Z,100354.88
2023-03-22T10:39:58.768Z,100359.11
2023-03-22T10:45:06.922Z,100359.25
2023-03-22T10:50:18.417Z,100357.31
2023-03-22T10:55:25.858Z,100351.71
2023-03-22T11:00:31.510Z,100346.64
2023-03-22T11:05:37.121Z,100345.75
2023-03-22T11:10:49.713Z,100340.98
2023-03-22T11:15:59.891Z,100331.81
2023-03-22T11:21:10.511Z,100329.32
2023-03-22T11:31:50.968Z,100314.86
2023-03-22T11:36:59.353Z,100316.80
2023-03-22T11:42:07.424Z,100312.64
2023-03-22T11:47:14.904Z,100307.64
2023-03-22T11:52:24.292Z,100300.71
2023-03-22T11:57:34.252Z,100296.42
2023-03-22T12:02:46.499Z,100289.83
2023-03-22T12:07:59.304Z,100283.30
2023-03-22T12:13:10.400Z,100271.56
2023-03-22T12:20:47.592Z,100263.48
2023-03-22T12:25:58.729Z,100250.31
2023-03-22T12:31:08.580Z,100249.71
2023-03-22T12:36:19.374Z,100240.92
2023-03-22T12:41:31.419Z,100239.45
2023-03-22T12:46:45.118Z,100234.98
2023-03-22T12:51:52.280Z,100230.27
2023-03-22T12:56:58.162Z,100227.89
2023-03-22T13:02:12.507Z,100225.34
2023-03-22T13:07:35.636Z,100227.85
2023-03-22T13:12:41.229Z,100220.96
2023-03-22T13:17:47.062Z,100214.59
2023-03-22T13:23:09.724Z,100205.70
2023-03-22T13:28:27.178Z,100202.17
2023-03-22T13:33:35.389Z,100198.20
2023-03-22T13:38:42.933Z,100192.99
2023-03-22T13:43:50.553Z,100192.08
2023-03-22T13:49:12.762Z,100188.32
2023-03-22T13:54:26.309Z,100188.58
2023-03-22T14:00:08.831Z,100185.70
2023-03-22T14:05:22.206Z,100183.19
2023-03-22T14:10:33.978Z,100183.89
2023-03-22T14:15:45.266Z,100184.64
2023-03-22T14:20:55.035Z,100182.96
